createdAt,value
2022-10-05T00:01:47.771Z,101540.50
2022-10-05T00:04:17.384Z,101553.69
2022-10-05T00:06:46.621Z,101553.69
2022-10-05T00:09:19.072Z,101557.16
2022-10-05T00:11:46.603Z,101552.00
2022-10-05T00:14:20.517Z,101555.56
2022-10-05T00:16:49.016Z,101555.56
2022-10-05T00:19:23.032Z,101554.72
2022-10-05T00:21:50.572Z,101554.00
2022-10-05T00:24:21.465Z,101547.06
2022-10-05T00:26:54.110Z,101532.34
2022-10-05T00:29:25.132Z,101524.69
2022-10-05T00:31:52.840Z,101523.13
2022-10-05T00:34:20.406Z,101545.94
2022-10-05T00:36:48.765Z,101541.72
2022-10-05T00:39:20.291Z,101543.53
2022-10-05T00:42:08.793Z,101548.75
2022-10-05T00:44:43.917Z,101542.78
2022-10-05T00:47:28.840Z,101549.03
2022-10-05T00:50:30.485Z,101536.13
2022-10-05T00:53:04.329Z,101541.38
2022-10-05T00:55:43.248Z,101538.00
2022-10-05T00:58:23.541Z,101526.78
2022-10-05T01:01:10.822Z,101527.72
2022-10-05T01:03:54.095Z,101523.41
2022-10-05T01:06:28.472Z,101522.75
2022-10-05T01:09:06.686Z,101511.63
2022-10-05T01:11:44.070Z,101524.69
2022-10-05T01:14:18.679Z,101515.38
2022-10-05T01:16:52.920Z,101513.66
2022-10-05T01:19:40.727Z,101509.47
2022-10-05T01:22:15.039Z,101507.88
2022-10-05T01:24:58.135Z,101514.03
2022-10-05T01:27:39.195Z,101516.84
2022-10-05T01:30:11.773Z,101516.84
2022-10-05T01:32:45.357Z,101494.25
2022-10-05T01:35:26.337Z,101489.19
2022-10-05T01:38:02.107Z,101479.66
2022-10-05T01:40:36.010Z,101476.38
2022-10-05T01:43:12.848Z,101493.09
2022-10-05T01:45:54.050Z,101503.69
2022-10-05T01:48:33.004Z,101500.19
2022-10-05T01:51:07.299Z,101512.47
2022-10-05T01:53:47.447Z,101503.78
2022-10-05T01:56:20.557Z,101502.00
2022-10-05T01:58:58.721Z,101488.25
2022-10-05T02:01:36.501Z,101486.56
2022-10-05T02:04:10.506Z,101491.78
2022-10-05T02:06:42.788Z,101500.47
2022-10-05T02:09:16.271Z,101497.03
2022-10-05T02:11:49.854Z,101506.47
2022-10-05T02:14:24.061Z,101504.78
2022-10-05T02:16:54.641Z,101505.63
2022-10-05T02:19:26.856Z,101516.09
2022-10-05T02:22:00.365Z,101509.19
2022-10-05T02:24:33.645Z,101518.69
2022-10-05T02:27:03.558Z,101516.00
2022-10-05T02:29:36.449Z,101517.88
2022-10-05T02:32:08.537Z,101516.94
2022-10-05T02:34:39.821Z,101510.03
2022-10-05T02:37:25.944Z,101510.09
2022-10-05T02:40:09.444Z,101509.28
2022-10-05T02:42:47.984Z,101506.84
2022-10-05T02:45:28.322Z,101507.69
2022-10-05T02:48:05.935Z,101506.84
2022-10-05T02:50:40.593Z,101505.91
2022-10-05T02:53:22.537Z,101505.06
2022-10-05T02:56:00.689Z,101503.41
2022-10-05T02:58:33.748Z,101505.91
2022-10-05T03:01:11.062Z,101508.72
2022-10-05T03:03:42.798Z,101507.84
2022-10-05T03:06:18.301Z,101508.81
2022-10-05T03:08:50.865Z,101503.66
2022-10-05T03:11:27.221Z,101497.69
2022-10-05T03:14:02.843Z,101495.34
2022-10-05T03:16:45.045Z,101488.59
2022-10-05T03:19:25.029Z,101479.09
2022-10-05T03:21:59.316Z,101488.03
2022-10-05T03:24:42.450Z,101493.53
2022-10-05T03:27:20.497Z,101498.03
2022-10-05T03:29:57.009Z,101488.47
2022-10-05T03:32:35.587Z,101497.28
2022-10-05T03:35:10.575Z,101477.44
2022-10-05T03:37:45.503Z,101481.28
2022-10-05T03:40:23.410Z,101468.38
2022-10-05T03:42:59.812Z,101471.19
2022-10-05T03:45:33.954Z,101474.06
2022-10-05T03:48:09.476Z,101468.16
2022-10-05T03:50:48.251Z,101464.06
2022-10-05T03:53:20.552Z,101458.94
2022-10-05T03:55:55.250Z,101460.81
2022-10-05T03:58:29.066Z,101457.31
2022-10-05T04:01:02.810Z,101446.13
2022-10-05T04:03:37.332Z,101449.66
2022-10-05T04:06:12.471Z,101439.28
2022-10-05T04:08:48.045Z,101439.41
2022-10-05T04:11:22.183Z,101446.38
2022-10-05T04:13:55.544Z,101448.25
2022-10-05T04:16:27.986Z,101436.97
2022-10-05T04:19:03.671Z,101442.19
2022-10-05T04:21:35.840Z,101449.16
2022-10-05T04:24:10.370Z,101458.03
2022-10-05T04:26:43.116Z,101450.13
2022-10-05T04:29:18.042Z,101457.00
2022-10-05T04:32:02.458Z,101439.75
2022-10-05T04:34:50.034Z,101445.81
2022-10-05T04:37:25.221Z,101445.81
2022-10-05T04:40:07.310Z,101452.81
2022-10-05T04:42:40.835Z,101447.59
2022-10-05T04:45:19.828Z,101444.13
2022-10-05T04:48:16.163Z,101436.19
2022-10-05T04:50:56.216Z,101428.34
2022-10-05T04:53:31.971Z,101438.81
2022-10-05T04:56:06.453Z,101436.28
2022-10-05T04:58:48.588Z,101439.75
2022-10-05T05:01:33.068Z,101444.13
2022-10-05T05:04:14.574Z,101456.34
2022-10-05T05:06:54.656Z,101446.72
2022-10-05T05:09:43.329Z,101455.44
2022-10-05T05:12:25.612Z,101457.09
2022-10-05T05:15:22.008Z,101463.19
2022-10-05T05:18:03.759Z,101446.56
2022-10-05T05:20:48.624Z,101452.56
2022-10-05T05:23:25.032Z,101446.47
2022-10-05T05:26:01.245Z,101448.16
2022-10-05T05:28:37.029Z,101438.53
2022-10-05T05:31:11.836Z,101436.78
2022-10-05T05:33:51.874Z,101452.34
2022-10-05T05:36:37.706Z,101442.75
2022-10-05T05:39:21.916Z,101452.28
2022-10-05T05:41:59.377Z,101440.91
2022-10-05T05:44:30.077Z,101435.50
2022-10-05T05:47:04.605Z,101431.19
2022-10-05T05:49:48.990Z,101424.28
2022-10-05T05:52:22.793Z,101415.50
2022-10-05T05:54:57.680Z,101424.22
2022-10-05T05:57:30.767Z,101423.25
2022-10-05T06:00:06.151Z,101424.94
2022-10-05T06:03:01.984Z,101421.31
2022-10-05T06:05:33.221Z,101435.16
2022-10-05T06:08:11.937Z,101439.41
2022-10-05T06:10:46.531Z,101442.69
2022-10-05T06:13:20.129Z,101437.28
2022-10-05T06:15:54.145Z,101432.81
2022-10-05T06:18:24.040Z,101432.53
2022-10-05T06:21:00.892Z,101428.91
2022-10-05T06:23:35.540Z,101436.56
2022-10-05T06:26:26.775Z,101439.84
2022-10-05T06:28:59.787Z,101446.47
2022-10-05T06:31:43.948Z,101438.34
2022-10-05T06:34:30.024Z,101440.69
2022-10-05T06:37:03.282Z,101436.09
2022-10-05T06:40:02.994Z,101445.38
2022-10-05T06:42:47.992Z,101447.69
2022-10-05T06:45:53.055Z,101448.25
2022-10-05T06:48:38.870Z,101444.44
2022-10-05T06:51:34.312Z,101452.75
2022-10-05T06:54:24.370Z,101457.69
2022-10-05T06:56:59.066Z,101456.47
2022-10-05T06:59:37.341Z,101460.50
2022-10-05T07:02:16.143Z,101456.63
2022-10-05T07:04:56.922Z,101475.44
2022-10-05T07:07:33.252Z,101469.84
2022-10-05T07:10:13.690Z,101461.69
2022-10-05T07:12:54.517Z,101453.34
2022-10-05T07:15:45.692Z,101466.88
2022-10-05T07:18:47.951Z,101466.59
2022-10-05T07:21:24.837Z,101459.19
2022-10-05T07:24:03.710Z,101453.75
2022-10-05T07:26:36.990Z,101453.16
2022-10-05T07:29:19.972Z,101465.75
2022-10-05T07:31:56.222Z,101461.91
2022-10-05T07:34:36.589Z,101462.44
2022-10-05T07:37:27.693Z,101456.72
2022-10-05T07:40:02.016Z,101463.41
2022-10-05T07:42:51.795Z,101450.94
2022-10-05T07:45:30.370Z,101466.47
2022-10-05T07:48:08.663Z,101453.78
2022-10-05T07:50:44.299Z,101457.81
2022-10-05T07:53:17.845Z,101449.31
2022-10-05T07:55:50.774Z,101452.25
2022-10-05T07:58:24.968Z,101461.50
2022-10-05T08:01:07.450Z,101464.66
2022-10-05T08:03:52.409Z,101464.34
2022-10-05T08:06:34.876Z,101454.31
2022-10-05T08:09:10.626Z,101449.25
2022-10-05T08:11:52.421Z,101452.16
2022-10-05T08:14:30.105Z,101459.50
2022-10-05T08:17:03.738Z,101466.88
2022-10-05T08:19:41.707Z,101467.16
2022-10-05T08:22:14.351Z,101465.78
2022-10-05T08:24:51.678Z,101448.41
2022-10-05T08:27:26.866Z,101436.53
2022-10-05T08:30:01.563Z,101426.66
2022-10-05T08:32:35.612Z,101411.41
2022-10-05T08:35:21.225Z,101426.50
2022-10-05T08:37:49.864Z,101425.09
2022-10-05T08:40:49.215Z,101414.75
2022-10-05T08:43:35.425Z,101423.50
2022-10-05T08:46:35.456Z,101407.41
2022-10-05T08:49:20.787Z,101399.72
2022-10-05T08:52:17.327Z,101402.59
2022-10-05T08:54:55.041Z,101397.47
2022-10-05T08:58:06.126Z,101391.41
2022-10-05T09:00:45.382Z,101391.66
2022-10-05T09:03:47.001Z,101406.75
2022-10-05T09:06:51.086Z,101397.28
2022-10-05T09:10:04.499Z,101396.59
2022-10-05T09:12:59.546Z,101385.44
2022-10-05T09:16:01.652Z,101389.06
2022-10-05T09:18:59.809Z,101396.31
2022-10-05T09:21:42.536Z,101383.50
2022-10-05T09:24:38.321Z,101381.38
2022-10-05T09:27:15.082Z,101368.91
2022-10-05T09:30:04.686Z,101374.53
2022-10-05T09:33:00.049Z,101386.38
2022-10-05T09:35:57.278Z,101384.09
2022-10-05T09:38:33.140Z,101385.53
2022-10-05T09:41:33.006Z,101384.31
2022-10-05T09:44:16.697Z,101380.50
2022-10-05T09:46:58.436Z,101380.25
2022-10-05T09:50:01.069Z,101367.78
2022-10-05T09:52:48.813Z,101373.63
2022-10-05T09:55:43.457Z,101364.53
2022-10-05T09:58:58.949Z,101373.00
2022-10-05T10:01:41.978Z,101370.84
2022-10-05T10:04:39.243Z,101361.69
2022-10-05T10:07:37.875Z,101369.94
2022-10-05T10:10:31.547Z,101363.34
2022-10-05T10:13:17.459Z,101366.53
2022-10-05T10:16:06.273Z,101353.94
2022-10-05T10:18:54.298Z,101352.59
2022-10-05T10:21:44.337Z,101363.22
2022-10-05T10:24:30.690Z,101369.53
2022-10-05T10:27:12.546Z,101359.97
2022-10-05T10:30:03.503Z,101348.91
2022-10-05T10:33:15.778Z,101351.06
2022-10-05T10:35:50.827Z,101342.75
2022-10-05T10:46:24.377Z,101356.72
2022-10-05T11:16:48.766Z,101329.41
2022-10-05T11:20:08.077Z,101338.09
2022-10-05T11:23:06.965Z,101326.88
2022-10-05T11:26:14.970Z,101322.75
2022-10-05T11:29:06.788Z,101328.06
2022-10-05T11:31:59.549Z,101331.59
2022-10-05T11:34:43.118Z,101327.72
2022-10-05T11:37:32.510Z,101319.59
2022-10-05T11:40:28.013Z,101325.97
2022-10-05T11:43:19.077Z,101313.81
2022-10-05T11:46:03.298Z,101318.34
2022-10-05T11:48:50.600Z,101306.75
2022-10-05T11:51:34.212Z,101303.06
2022-10-05T11:54:19.637Z,101291.44
2022-10-05T11:56:54.729Z,101295.25
2022-10-05T11:59:31.550Z,101291.59
2022-10-05T12:02:09.005Z,101310.41
2022-10-05T12:04:52.669Z,101303.41
2022-10-05T12:07:32.325Z,101299.91
2022-10-05T12:10:17.723Z,101291.78
2022-10-05T12:12:58.191Z,101289.59
2022-10-05T12:18:50.686Z,101291.25
2022-10-05T12:21:30.884Z,101281.63
2022-10-05T12:24:03.153Z,101288.94
2022-10-05T12:26:40.903Z,101281.13
2022-10-05T12:29:18.851Z,101289.44
2022-10-05T12:32:03.011Z,101273.63
2022-10-05T12:34:44.940Z,101270.78
2022-10-05T12:37:33.453Z,101266.38
2022-10-05T12:40:06.402Z,101261.63
2022-10-05T12:42:52.840Z,101263.38
2022-10-05T12:45:34.399Z,101261.81
2022-10-05T12:48:24.424Z,101256.88
2022-10-05T12:51:01.868Z,101255.63
2022-10-05T12:53:49.323Z,101257.75
2022-10-05T12:56:34.991Z,101260.53
2022-10-05T12:59:15.992Z,101257.09
2022-10-05T13:02:00.295Z,101253.44
2022-10-05T13:04:49.625Z,101254.78
2022-10-05T13:07:45.015Z,101248.75
2022-10-05T13:10:50.411Z,101245.50
2022-10-05T13:13:44.411Z,101244.69
2022-10-05T13:16:24.696Z,101248.91
2022-10-05T13:19:03.865Z,101248.41
2022-10-05T13:21:55.126Z,101238.19
2022-10-05T13:24:30.297Z,101232.03
2022-10-05T13:27:06.864Z,101240.34
2022-10-05T13:29:41.818Z,101244.75
2022-10-05T13:32:18.949Z,101246.81
2022-10-05T13:34:53.416Z,101236.91
2022-10-05T13:37:34.286Z,101226.50
2022-10-05T13:40:23.324Z,101243.53
2022-10-05T13:42:57.724Z,101234.75
2022-10-05T13:45:37.470Z,101230.59
2022-10-05T13:48:21.915Z,101229.13
2022-10-05T13:50:55.651Z,101225.78
2022-10-05T13:53:33.377Z,101221.50
2022-10-05T14:00:48.123Z,101223.66
2022-10-05T14:23:07.368Z,101204.66
2022-10-05T14:30:03.488Z,101200.91
2022-10-05T14:32:58.999Z,101200.03
2022-10-05T14:35:55.380Z,101202.66
2022-10-05T14:38:41.292Z,101198.28
2022-10-05T14:49:55.484Z,101170.50
2022-10-05T14:56:58.970Z,101169.09
2022-10-05T15:00:42.073Z,101161.59
2022-10-05T15:03:59.138Z,101154.56
2022-10-05T15:07:31.904Z,101154.88
2022-10-05T15:10:27.220Z,101164.00
2022-10-05T15:12:58.818Z,101152.66
2022-10-05T15:15:35.619Z,101154.63
2022-10-05T15:18:09.243Z,101155.81
2022-10-05T15:20:48.472Z,101158.59
2022-10-05T15:23:27.557Z,101160.41
2022-10-05T15:30:05.488Z,101153.75
2022-10-05T15:32:53.139Z,101159.50
2022-10-05T15:35:54.812Z,101158.03
2022-10-05T15:38:27.528Z,101148.41
2022-10-05T15:41:17.306Z,101166.13
2022-10-05T15:44:01.004Z,101151.50
2022-10-05T15:46:37.621Z,101151.81
2022-10-05T15:49:19.554Z,101157.41
2022-10-05T15:52:03.642Z,101154.38
2022-10-05T15:54:58.960Z,101153.03
2022-10-05T15:57:37.084Z,101161.44
2022-10-05T16:00:11.666Z,101165.34
2022-10-05T16:02:46.711Z,101157.03
2022-10-05T16:05:51.866Z,101165.28
2022-10-05T16:08:54.294Z,101159.44
2022-10-05T16:12:01.968Z,101161.28
2022-10-05T16:14:40.149Z,101166.03
2022-10-05T16:17:22.242Z,101165.53
2022-10-05T16:20:03.953Z,101153.41
2022-10-05T16:22:43.574Z,101154.56
2022-10-05T16:25:23.026Z,101162.94
2022-10-05T16:28:05.719Z,101158.09
2022-10-05T16:30:45.670Z,101155.88
2022-10-05T16:33:19.990Z,101157.13
2022-10-05T16:36:02.932Z,101147.13
2022-10-05T16:38:40.010Z,101141.47
2022-10-05T16:41:16.201Z,101136.91
2022-10-05T16:43:49.637Z,101137.34
2022-10-05T16:46:28.128Z,101137.78
2022-10-05T16:49:04.125Z,101138.09
2022-10-05T16:51:43.394Z,101134.06
2022-10-05T16:54:18.997Z,101136.31
2022-10-05T16:56:52.021Z,101137.75
2022-10-05T16:59:48.331Z,101137.66
2022-10-05T17:02:30.017Z,101145.88
2022-10-05T17:05:15.227Z,101141.69
2022-10-05T17:07:59.361Z,101144.63
2022-10-05T17:10:41.069Z,101141.56
2022-10-05T17:13:23.735Z,101144.50
2022-10-05T17:16:01.241Z,101141.31
2022-10-05T17:18:53.560Z,101154.69
2022-10-05T17:21:28.509Z,101149.00
2022-10-05T17:24:05.985Z,101154.72
2022-10-05T17:26:43.133Z,101143.88
2022-10-05T17:29:17.117Z,101155.69
2022-10-05T17:32:11.066Z,101158.88
2022-10-05T17:34:39.947Z,101153.88
2022-10-05T17:37:19.644Z,101155.97
2022-10-05T17:39:50.338Z,101153.63
2022-10-05T17:42:46.791Z,101150.56
2022-10-05T17:45:54.238Z,101162.56
2022-10-05T17:49:07.712Z,101144.63
2022-10-05T17:52:20.420Z,101161.84
2022-10-05T17:55:26.910Z,101155.31
2022-10-05T17:58:00.122Z,101148.81
2022-10-05T18:00:42.018Z,101155.44
2022-10-05T18:03:42.393Z,101158.38
2022-10-05T18:06:31.762Z,101156.84
2022-10-05T18:09:20.839Z,101160.59
2022-10-05T18:12:09.249Z,101144.19
2022-10-05T18:14:56.478Z,101161.41
2022-10-05T18:17:45.380Z,101154.06
2022-10-05T18:20:19.045Z,101154.47
2022-10-05T18:22:47.231Z,101148.63
2022-10-05T18:25:30.165Z,101148.19
2022-10-05T18:28:14.770Z,101149.56
2022-10-05T18:30:59.038Z,101154.16
2022-10-05T18:33:48.119Z,101152.72
2022-10-05T18:36:45.779Z,101153.13
2022-10-05T18:39:28.840Z,101156.03
2022-10-05T18:42:08.227Z,101159.78
2022-10-05T18:44:41.288Z,101151.44
2022-10-05T18:47:18.693Z,101150.75
2022-10-05T18:49:57.155Z,101151.81
2022-10-05T18:52:37.955Z,101155.72
2022-10-05T18:55:16.822Z,101158.63
2022-10-05T18:58:25.977Z,101152.78
2022-10-05T19:01:16.858Z,101157.50
2022-10-05T19:03:56.230Z,101162.91
2022-10-05T19:06:27.935Z,101156.19
2022-10-05T19:09:07.566Z,101157.31
2022-10-05T19:11:43.108Z,101150.50
2022-10-05T19:14:22.968Z,101160.34
2022-10-05T19:17:03.820Z,101152.69
2022-10-05T19:19:44.955Z,101161.69
2022-10-05T19:22:24.957Z,101162.81
2022-10-05T19:25:06.573Z,101158.63
2022-10-05T19:27:44.603Z,101162.25
2022-10-05T19:30:20.607Z,101168.59
2022-10-05T19:33:04.589Z,101170.41
2022-10-05T19:35:41.383Z,101177.44
2022-10-05T19:38:22.394Z,101182.88
2022-10-05T19:40:57.869Z,101187.44
2022-10-05T19:43:41.219Z,101181.34
2022-10-05T19:46:19.272Z,101191.03
2022-10-05T19:48:49.421Z,101196.44
2022-10-05T19:51:29.417Z,101201.03
2022-10-05T19:53:59.196Z,101210.56
2022-10-05T19:56:30.021Z,101203.66
2022-10-05T19:59:00.482Z,101200.16
2022-10-05T20:01:34.012Z,101206.41
2022-10-05T20:04:02.153Z,101209.19
2022-10-05T20:06:31.856Z,101206.53
2022-10-05T20:09:02.053Z,101210.13
2022-10-05T20:11:31.419Z,101218.03
2022-10-05T20:14:18.777Z,101209.44
2022-10-05T20:17:05.468Z,101210.38
2022-10-05T20:19:56.222Z,101220.22
2022-10-05T20:22:26.389Z,101218.53
2022-10-05T20:24:56.143Z,101226.44
2022-10-05T20:27:44.830Z,101234.34
2022-10-05T20:30:14.535Z,101237.97
2022-10-05T20:32:45.126Z,101249.47
2022-10-05T20:35:12.962Z,101244.06
2022-10-05T20:37:41.333Z,101250.16
2022-10-05T20:40:10.380Z,101252.78
2022-10-05T20:42:38.870Z,101251.97
2022-10-05T20:45:07.422Z,101259.88
2022-10-05T20:47:40.181Z,101254.59
2022-10-05T20:50:11.909Z,101262.50
2022-10-05T20:52:39.716Z,101254.59
2022-10-05T20:55:09.402Z,101266.94
2022-10-05T20:57:38.563Z,101269.72
2022-10-05T21:00:07.414Z,101270.66
2022-10-05T21:02:35.059Z,101275.94
2022-10-05T21:05:04.538Z,101274.13
2022-10-05T21:07:34.192Z,101283.00
2022-10-05T21:10:02.321Z,101280.38
2022-10-05T21:12:30.106Z,101283.00
2022-10-05T21:14:59.549Z,101281.31
2022-10-05T21:17:27.107Z,101281.31
2022-10-05T21:19:54.806Z,101288.41
2022-10-05T21:22:22.306Z,101296.31
2022-10-05T21:24:51.058Z,101292.97
2022-10-05T21:27:18.506Z,101291.41
2022-10-05T21:29:45.954Z,101292.34
2022-10-05T21:32:15.389Z,101288.06
2022-10-05T21:34:42.881Z,101295.97
2022-10-05T21:37:10.347Z,101301.25
2022-10-05T21:39:37.753Z,101306.63
2022-10-05T21:42:06.559Z,101303.19
2022-10-05T21:44:33.972Z,101314.53
2022-10-05T21:47:02.151Z,101304.81
2022-10-05T21:49:29.751Z,101309.16
2022-10-05T21:51:57.802Z,101313.56
2022-10-05T21:54:25.439Z,101312.72
2022-10-05T21:56:56.458Z,101316.19
2022-10-05T21:59:29.341Z,101306.63
2022-10-05T22:01:56.770Z,101318.00
2022-10-05T22:04:24.379Z,101324.25
2022-10-05T22:06:51.838Z,101327.84
2022-10-05T22:09:19.235Z,101317.28
2022-10-05T22:11:47.625Z,101316.34
2022-10-05T22:14:16.212Z,101320.75
2022-10-05T22:16:45.497Z,101317.28
2022-10-05T22:19:16.683Z,101317.28
2022-10-05T22:21:44.221Z,101318.97
2022-10-05T22:24:11.914Z,101320.75
2022-10-05T22:26:40.837Z,101325.19
2022-10-05T22:29:08.629Z,101326.03
2022-10-05T22:31:36.388Z,101327.72
2022-10-05T22:34:05.315Z,101329.53
2022-10-05T22:36:34.693Z,101324.25
2022-10-05T22:39:02.393Z,101330.47
2022-10-05T22:41:29.885Z,101333.09
2022-10-05T22:43:57.330Z,101327.00
2022-10-05T22:46:24.966Z,101329.63
2022-10-05T22:48:52.422Z,101335.59
2022-10-05T22:51:21.192Z,101324.25
2022-10-05T22:53:48.625Z,101341.84
2022-10-05T22:56:16.683Z,101338.38
2022-10-05T22:58:45.456Z,101335.84
2022-10-05T23:01:15.310Z,101347.22
2022-10-05T23:03:42.979Z,101347.34
2022-10-05T23:06:12.374Z,101336.81
2022-10-05T23:08:41.972Z,101348.31
2022-10-05T23:11:12.246Z,101337.78
2022-10-05T23:13:40.382Z,101344.81
2022-10-05T23:16:09.057Z,101344.00
2022-10-05T23:18:36.989Z,101348.56
2022-10-05T23:21:05.675Z,101353.13
2022-10-05T23:23:33.158Z,101350.38
2022-10-05T23:26:03.049Z,101351.31
2022-10-05T23:28:31.351Z,101354.88
2022-10-05T23:31:00.366Z,101351.41
2022-10-05T23:33:27.997Z,101345.22
2022-10-05T23:36:00.433Z,101357.41
2022-10-05T23:38:28.745Z,101363.53
2022-10-05T23:40:57.966Z,101359.09
2022-10-05T23:43:27.489Z,101367.81
2022-10-05T23:45:55.592Z,101366.06
2022-10-05T23:48:23.488Z,101373.81
2022-10-05T23:50:51.433Z,101375.59
2022-10-05T23:53:19.926Z,101379.06
2022-10-05T23:55:50.488Z,101379.94
2022-10-05T23:58:18.472Z,101386.84
